sensor_id;sensor_type;location;lat;lon;timestamp;P1;durP1;ratioP1;P2;durP2;ratioP2
71566;SDS011;59403;47.456;19.120;2023-10-19T00:00:14;14.52;;;9.15;;
71566;SDS011;59403;47.456;19.120;2023-10-19T00:02:49;17.75;;;9.30;;
71566;SDS011;59403;47.456;19.120;2023-10-19T00:05:20;17.95;;;8.80;;
71566;SDS011;59403;47.456;19.120;2023-10-19T00:07:46;15.63;;;10.25;;
71566;SDS011;59403;47.456;19.120;2023-10-19T00:10:13;15.63;;;9.77;;
71566;SDS011;59403;47.456;19.120;2023-10-19T00:12:41;13.05;;;8.85;;
71566;SDS011;59403;47.456;19.120;2023-10-19T00:15:17;18.12;;;10.40;;
71566;SDS011;59403;47.456;19.120;2023-10-19T00:17:50;16.27;;;9.45;;
71566;SDS011;59403;47.456;19.120;2023-10-19T00:20:20;16.67;;;9.80;;
71566;SDS011;59403;47.456;19.120;2023-10-19T00:23:12;16.03;;;10.03;;
71566;SDS011;59403;47.456;19.120;2023-10-19T00:25:43;17.87;;;9.77;;
71566;SDS011;59403;47.456;19.120;2023-10-19T00:28:09;15.48;;;9.60;;
71566;SDS011;59403;47.456;19.120;2023-10-19T00:30:40;15.80;;;9.75;;
71566;SDS011;59403;47.456;19.120;2023-10-19T00:33:09;20.02;;;11.00;;
71566;SDS011;59403;47.456;19.120;2023-10-19T00:35:41;15.93;;;9.67;;
71566;SDS011;59403;47.456;19.120;2023-10-19T00:38:12;17.33;;;10.50;;
71566;SDS011;59403;47.456;19.120;2023-10-19T00:40:55;19.58;;;10.40;;
71566;SDS011;59403;47.456;19.120;2023-10-19T00:43:29;20.30;;;10.77;;
71566;SDS011;59403;47.456;19.120;2023-10-19T00:45:59;18.12;;;11.02;;
71566;SDS011;59403;47.456;19.120;2023-10-19T00:48:29;19.40;;;10.70;;
71566;SDS011;59403;47.456;19.120;2023-10-19T00:50:58;16.95;;;10.82;;
71566;SDS011;59403;47.456;19.120;2023-10-19T00:53:35;20.42;;;11.68;;
71566;SDS011;59403;47.456;19.120;2023-10-19T00:56:04;18.12;;;10.63;;
71566;SDS011;59403;47.456;19.120;2023-10-19T00:58:34;17.73;;;11.00;;
71566;SDS011;59403;47.456;19.120;2023-10-19T01:01:04;20.73;;;10.47;;
71566;SDS011;59403;47.456;19.120;2023-10-19T01:03:33;20.45;;;11.70;;
71566;SDS011;59403;47.456;19.120;2023-10-19T01:06:04;18.62;;;12.20;;
71566;SDS011;59403;47.456;19.120;2023-10-19T01:08:38;19.85;;;11.32;;
71566;SDS011;59403;47.456;19.120;2023-10-19T01:11:10;20.42;;;10.77;;
71566;SDS011;59403;47.456;19.120;2023-10-19T01:13:40;20.20;;;11.30;;
71566;SDS011;59403;47.456;19.120;2023-10-19T01:16:13;20.48;;;11.43;;
71566;SDS011;59403;47.456;19.120;2023-10-19T01:18:48;19.75;;;11.52;;
71566;SDS011;59403;47.456;19.120;2023-10-19T01:21:19;22.98;;;12.15;;
71566;SDS011;59403;47.456;19.120;2023-10-19T01:24:05;18.37;;;11.88;;
71566;SDS011;59403;47.456;19.120;2023-10-19T01:26:32;18.13;;;11.67;;
71566;SDS011;59403;47.456;19.120;2023-10-19T01:29:02;21.37;;;12.23;;
71566;SDS011;59403;47.456;19.120;2023-10-19T01:31:38;23.83;;;12.95;;
71566;SDS011;59403;47.456;19.120;2023-10-19T01:34:18;23.08;;;13.07;;
71566;SDS011;59403;47.456;19.120;2023-10-19T01:36:47;22.45;;;12.93;;
71566;SDS011;59403;47.456;19.120;2023-10-19T01:39:16;20.20;;;12.93;;
71566;SDS011;59403;47.456;19.120;2023-10-19T01:41:44;21.25;;;12.82;;
71566;SDS011;59403;47.456;19.120;2023-10-19T01:44:10;20.75;;;13.35;;
71566;SDS011;59403;47.456;19.120;2023-10-19T01:46:39;23.08;;;13.30;;
71566;SDS011;59403;47.456;19.120;2023-10-19T01:49:09;24.77;;;14.65;;
71566;SDS011;59403;47.456;19.120;2023-10-19T01:51:35;22.47;;;13.60;;
71566;SDS011;59403;47.456;19.120;2023-10-19T01:54:04;22.87;;;14.00;;
71566;SDS011;59403;47.456;19.120;2023-10-19T01:56:32;24.50;;;13.77;;
71566;SDS011;59403;47.456;19.120;2023-10-19T01:59:01;27.62;;;14.75;;
71566;SDS011;59403;47.456;19.120;2023-10-19T02:04:05;24.70;;;15.23;;
71566;SDS011;59403;47.456;19.120;2023-10-19T02:06:34;28.62;;;16.23;;
71566;SDS011;59403;47.456;19.120;2023-10-19T02:09:02;27.08;;;15.25;;
71566;SDS011;59403;47.456;19.120;2023-10-19T02:11:43;27.20;;;16.58;;
71566;SDS011;59403;47.456;19.120;2023-10-19T02:14:11;26.92;;;16.67;;
71566;SDS011;59403;47.456;19.120;2023-10-19T02:16:40;27.90;;;16.50;;
71566;SDS011;59403;47.456;19.120;2023-10-19T02:19:06;28.35;;;16.52;;
71566;SDS011;59403;47.456;19.120;2023-10-19T02:21:33;29.37;;;17.90;;
71566;SDS011;59403;47.456;19.120;2023-10-19T02:24:04;29.77;;;16.67;;
71566;SDS011;59403;47.456;19.120;2023-10-19T02:26:33;29.80;;;17.70;;
71566;SDS011;59403;47.456;19.120;2023-10-19T02:29:01;29.33;;;16.67;;
71566;SDS011;59403;47.456;19.120;2023-10-19T02:31:32;29.75;;;17.85;;
71566;SDS011;59403;47.456;19.120;2023-10-19T02:33:58;29.50;;;16.62;;
71566;SDS011;59403;47.456;19.120;2023-10-19T02:36:27;28.70;;;18.35;;
71566;SDS011;59403;47.456;19.120;2023-10-19T02:38:55;29.63;;;19.05;;
71566;SDS011;59403;47.456;19.120;2023-10-19T02:41:24;29.80;;;18.87;;
71566;SDS011;59403;47.456;19.120;2023-10-19T02:43:52;32.33;;;18.80;;
71566;SDS011;59403;47.456;19.120;2023-10-19T02:46:32;33.95;;;19.67;;
71566;SDS011;59403;47.456;19.120;2023-10-19T02:48:59;34.88;;;20.45;;
71566;SDS011;59403;47.456;19.120;2023-10-19T02:51:28;33.92;;;20.48;;
71566;SDS011;59403;47.456;19.120;2023-10-19T02:53:54;33.67;;;20.63;;
71566;SDS011;59403;47.456;19.120;2023-10-19T02:56:21;31.65;;;20.08;;
71566;SDS011;59403;47.456;19.120;2023-10-19T02:58:48;34.80;;;21.30;;
71566;SDS011;59403;47.456;19.120;2023-10-19T03:01:16;33.03;;;21.27;;
71566;SDS011;59403;47.456;19.120;2023-10-19T03:03:48;35.58;;;22.62;;
71566;SDS011;59403;47.456;19.120;2023-10-19T03:06:19;33.60;;;20.33;;
71566;SDS011;59403;47.456;19.120;2023-10-19T03:08:45;36.13;;;21.37;;
71566;SDS011;59403;47.456;19.120;2023-10-19T03:11:12;31.30;;;21.27;;
71566;SDS011;59403;47.456;19.120;2023-10-19T03:13:39;35.08;;;21.02;;
71566;SDS011;59403;47.456;19.120;2023-10-19T03:16:08;32.47;;;20.65;;
71566;SDS011;59403;47.456;19.120;2023-10-19T03:18:34;31.07;;;18.63;;
71566;SDS011;59403;47.456;19.120;2023-10-19T03:21:03;36.17;;;18.92;;
71566;SDS011;59403;47.456;19.120;2023-10-19T03:23:29;33.20;;;19.87;;
71566;SDS011;59403;47.456;19.120;2023-10-19T03:25:59;33.60;;;20.55;;
71566;SDS011;59403;47.456;19.120;2023-10-19T03:28:49;33.67;;;21.37;;
71566;SDS011;59403;47.456;19.120;2023-10-19T03:31:20;33.10;;;20.17;;
71566;SDS011;59403;47.456;19.120;2023-10-19T03:33:48;35.72;;;21.30;;
71566;SDS011;59403;47.456;19.120;2023-10-19T03:36:20;33.60;;;20.17;;
71566;SDS011;59403;47.456;19.120;2023-10-19T03:38:48;34.75;;;20.52;;
71566;SDS011;59403;47.456;19.120;2023-10-19T03:41:16;33.10;;;21.13;;
71566;SDS011;59403;47.456;19.120;2023-10-19T03:43:46;32.65;;;20.05;;
71566;SDS011;59403;47.456;19.120;2023-10-19T03:46:14;39.13;;;19.87;;
71566;SDS011;59403;47.456;19.120;2023-10-19T03:48:48;32.13;;;19.98;;
71566;SDS011;59403;47.456;19.120;2023-10-19T03:51:15;36.50;;;21.50;;
71566;SDS011;59403;47.456;19.120;2023-10-19T03:53:44;33.30;;;20.13;;
71566;SDS011;59403;47.456;19.120;2023-10-19T03:56:18;33.40;;;19.87;;
71566;SDS011;59403;47.456;19.120;2023-10-19T03:58:45;32.40;;;19.95;;
71566;SDS011;59403;47.456;19.120;2023-10-19T04:01:16;32.88;;;21.35;;
71566;SDS011;59403;47.456;19.120;2023-10-19T04:03:45;37.20;;;20.27;;
71566;SDS011;59403;47.456;19.120;2023-10-19T04:06:14;32.27;;;20.27;;
71566;SDS011;59403;47.456;19.120;2023-10-19T04:08:46;32.33;;;19.27;;
71566;SDS011;59403;47.456;19.120;2023-10-19T04:11:16;32.53;;;20.42;;
71566;SDS011;59403;47.456;19.120;2023-10-19T04:13:50;34.08;;;20.37;;
71566;SDS011;59403;47.456;19.120;2023-10-19T04:16:19;34.13;;;19.87;;
71566;SDS011;59403;47.456;19.120;2023-10-19T04:18:46;32.83;;;19.67;;
71566;SDS011;59403;47.456;19.120;2023-10-19T04:21:15;33.05;;;19.73;;
71566;SDS011;59403;47.456;19.120;2023-10-19T04:23:42;36.55;;;19.33;;
71566;SDS011;59403;47.456;19.120;2023-10-19T04:26:13;35.20;;;19.50;;
71566;SDS011;59403;47.456;19.120;2023-10-19T04:28:43;35.58;;;19.92;;
71566;SDS011;59403;47.456;19.120;2023-10-19T04:31:16;36.37;;;19.87;;
71566;SDS011;59403;47.456;19.120;2023-10-19T04:33:44;32.45;;;19.10;;
71566;SDS011;59403;47.456;19.120;2023-10-19T04:36:13;35.97;;;21.08;;
71566;SDS011;59403;47.456;19.120;2023-10-19T04:38:40;35.17;;;20.62;;
71566;SDS011;59403;47.456;19.120;2023-10-19T04:41:09;35.47;;;21.23;;
71566;SDS011;59403;47.456;19.120;2023-10-19T04:43:38;34.63;;;20.57;;
71566;SDS011;59403;47.456;19.120;2023-10-19T04:46:09;36.63;;;19.70;;
71566;SDS011;59403;47.456;19.120;2023-10-19T04:48:38;34.92;;;20.02;;
71566;SDS011;59403;47.456;19.120;2023-10-19T04:51:09;41.53;;;20.92;;
71566;SDS011;59403;47.456;19.120;2023-10-19T04:53:36;35.90;;;20.33;;
71566;SDS011;59403;47.456;19.120;2023-10-19T04:56:03;34.93;;;20.40;;
71566;SDS011;59403;47.456;19.120;2023-10-19T04:58:30;41.72;;;21.08;;
71566;SDS011;59403;47.456;19.120;2023-10-19T05:00:59;35.17;;;21.10;;
71566;SDS011;59403;47.456;19.120;2023-10-19T05:03:26;37.17;;;21.37;;
71566;SDS011;59403;47.456;19.120;2023-10-19T05:05:54;35.75;;;21.05;;
71566;SDS011;59403;47.456;19.120;2023-10-19T05:08:22;36.57;;;21.23;;
71566;SDS011;59403;47.456;19.120;2023-10-19T05:10:51;42.15;;;21.77;;
71566;SDS011;59403;47.456;19.120;2023-10-19T05:13:19;35.30;;;20.33;;
71566;SDS011;59403;47.456;19.120;2023-10-19T05:15:46;38.30;;;21.45;;
71566;SDS011;59403;47.456;19.120;2023-10-19T05:18:14;35.33;;;20.90;;
71566;SDS011;59403;47.456;19.120;2023-10-19T05:20:41;38.47;;;21.73;;
71566;SDS011;59403;47.456;19.120;2023-10-19T05:23:08;36.03;;;20.33;;
71566;SDS011;59403;47.456;19.120;2023-10-19T05:25:35;34.53;;;20.83;;
71566;SDS011;59403;47.456;19.120;2023-10-19T05:28:03;35.05;;;19.95;;
71566;SDS011;59403;47.456;19.120;2023-10-19T05:30:31;35.05;;;20.60;;
71566;SDS011;59403;47.456;19.120;2023-10-19T05:32:58;34.20;;;19.23;;
71566;SDS011;59403;47.456;19.120;2023-10-19T05:35:28;35.92;;;19.83;;
71566;SDS011;59403;47.456;19.120;2023-10-19T05:37:55;35.78;;;21.40;;
71566;SDS011;59403;47.456;19.120;2023-10-19T05:40:23;34.88;;;19.95;;
71566;SDS011;59403;47.456;19.120;2023-10-19T05:42:54;34.63;;;20.37;;
71566;SDS011;59403;47.456;19.120;2023-10-19T05:45:23;38.67;;;22.63;;
71566;SDS011;59403;47.456;19.120;2023-10-19T05:47:50;34.90;;;20.23;;
71566;SDS011;59403;47.456;19.120;2023-10-19T05:50:16;36.25;;;20.55;;
71566;SDS011;59403;47.456;19.120;2023-10-19T05:52:45;34.97;;;20.52;;
71566;SDS011;59403;47.456;19.120;2023-10-19T05:55:13;37.70;;;20.77;;
71566;SDS011;59403;47.456;19.120;2023-10-19T05:57:41;38.43;;;21.60;;
71566;SDS011;59403;47.456;19.120;2023-10-19T06:00:08;36.05;;;20.90;;
71566;SDS011;59403;47.456;19.120;2023-10-19T06:02:41;37.90;;;21.50;;
71566;SDS011;59403;47.456;19.120;2023-10-19T06:05:10;36.97;;;20.92;;
71566;SDS011;59403;47.456;19.120;2023-10-19T06:07:37;35.80;;;21.87;;
71566;SDS011;59403;47.456;19.120;2023-10-19T06:10:06;36.97;;;21.50;;
71566;SDS011;59403;47.456;19.120;2023-10-19T06:12:33;37.28;;;21.58;;
71566;SDS011;59403;47.456;19.120;2023-10-19T06:15:02;40.75;;;21.62;;
71566;SDS011;59403;47.456;19.120;2023-10-19T06:17:29;39.30;;;21.75;;
71566;SDS011;59403;47.456;19.120;2023-10-19T06:19:56;38.88;;;21.55;;
71566;SDS011;59403;47.456;19.120;2023-10-19T06:22:23;44.37;;;22.97;;
71566;SDS011;59403;47.456;19.120;2023-10-19T06:24:50;47.10;;;25.17;;
71566;SDS011;59403;47.456;19.120;2023-10-19T06:27:18;58.65;;;35.47;;
71566;SDS011;59403;47.456;19.120;2023-10-19T06:29:47;59.78;;;34.20;;
71566;SDS011;59403;47.456;19.120;2023-10-19T06:32:14;48.97;;;28.38;;
71566;SDS011;59403;47.456;19.120;2023-10-19T06:34:42;44.10;;;25.67;;
71566;SDS011;59403;47.456;19.120;2023-10-19T06:37:09;36.00;;;21.67;;
71566;SDS011;59403;47.456;19.120;2023-10-19T06:39:36;36.35;;;21.37;;
71566;SDS011;59403;47.456;19.120;2023-10-19T06:42:06;39.47;;;21.58;;
71566;SDS011;59403;47.456;19.120;2023-10-19T06:44:40;38.03;;;20.73;;
71566;SDS011;59403;47.456;19.120;2023-10-19T06:47:08;35.57;;;21.27;;
71566;SDS011;59403;47.456;19.120;2023-10-19T06:49:35;37.47;;;19.75;;
71566;SDS011;59403;47.456;19.120;2023-10-19T06:52:03;35.80;;;20.10;;
71566;SDS011;59403;47.456;19.120;2023-10-19T06:54:31;33.58;;;19.45;;
71566;SDS011;59403;47.456;19.120;2023-10-19T06:56:58;34.90;;;21.10;;
71566;SDS011;59403;47.456;19.120;2023-10-19T06:59:28;33.90;;;19.73;;
71566;SDS011;59403;47.456;19.120;2023-10-19T07:01:59;32.53;;;19.45;;
71566;SDS011;59403;47.456;19.120;2023-10-19T07:04:27;35.90;;;19.85;;
71566;SDS011;59403;47.456;19.120;2023-10-19T07:06:55;35.00;;;19.67;;
71566;SDS011;59403;47.456;19.120;2023-10-19T07:09:22;32.65;;;19.00;;
71566;SDS011;59403;47.456;19.120;2023-10-19T07:11:49;31.73;;;18.60;;
71566;SDS011;59403;47.456;19.120;2023-10-19T07:14:19;31.42;;;19.40;;
71566;SDS011;59403;47.456;19.120;2023-10-19T07:16:48;33.00;;;19.17;;
71566;SDS011;59403;47.456;19.120;2023-10-19T07:19:17;35.97;;;19.12;;
71566;SDS011;59403;47.456;19.120;2023-10-19T07:21:44;34.15;;;19.30;;
71566;SDS011;59403;47.456;19.120;2023-10-19T07:24:14;34.80;;;19.87;;
71566;SDS011;59403;47.456;19.120;2023-10-19T07:26:44;31.17;;;19.67;;
71566;SDS011;59403;47.456;19.120;2023-10-19T07:29:27;41.50;;;19.08;;
71566;SDS011;59403;47.456;19.120;2023-10-19T07:31:54;33.65;;;19.92;;
71566;SDS011;59403;47.456;19.120;2023-10-19T07:34:24;32.60;;;19.30;;
71566;SDS011;59403;47.456;19.120;2023-10-19T07:36:53;36.53;;;19.70;;
71566;SDS011;59403;47.456;19.120;2023-10-19T07:39:20;31.87;;;18.67;;
71566;SDS011;59403;47.456;19.120;2023-10-19T07:41:48;32.58;;;19.00;;
71566;SDS011;59403;47.456;19.120;2023-10-19T07:44:15;32.95;;;19.08;;
71566;SDS011;59403;47.456;19.120;2023-10-19T07:46:43;31.10;;;18.30;;
71566;SDS011;59403;47.456;19.120;2023-10-19T07:49:09;30.70;;;17.73;;
71566;SDS011;59403;47.456;19.120;2023-10-19T07:51:41;30.70;;;17.30;;
71566;SDS011;59403;47.456;19.120;2023-10-19T07:54:12;29.02;;;18.15;;
71566;SDS011;59403;47.456;19.120;2023-10-19T07:56:39;28.90;;;17.27;;
71566;SDS011;59403;47.456;19.120;2023-10-19T07:59:05;27.50;;;17.00;;
71566;SDS011;59403;47.456;19.120;2023-10-19T08:01:33;30.70;;;17.87;;
71566;SDS011;59403;47.456;19.120;2023-10-19T08:04:01;31.70;;;17.02;;
71566;SDS011;59403;47.456;19.120;2023-10-19T08:06:28;31.60;;;18.42;;
71566;SDS011;59403;47.456;19.120;2023-10-19T08:08:57;29.42;;;16.08;;
71566;SDS011;59403;47.456;19.120;2023-10-19T08:11:24;26.52;;;15.70;;
71566;SDS011;59403;47.456;19.120;2023-10-19T08:13:51;28.10;;;16.53;;
71566;SDS011;59403;47.456;19.120;2023-10-19T08:16:20;29.17;;;16.50;;
71566;SDS011;59403;47.456;19.120;2023-10-19T08:18:49;27.08;;;16.50;;
71566;SDS011;59403;47.456;19.120;2023-10-19T08:21:17;25.27;;;15.18;;
71566;SDS011;59403;47.456;19.120;2023-10-19T08:23:47;29.73;;;16.62;;
71566;SDS011;59403;47.456;19.120;2023-10-19T08:26:15;28.10;;;16.20;;
71566;SDS011;59403;47.456;19.120;2023-10-19T08:28:42;29.15;;;17.05;;
71566;SDS011;59403;47.456;19.120;2023-10-19T08:31:09;29.67;;;16.77;;
71566;SDS011;59403;47.456;19.120;2023-10-19T08:33:36;29.23;;;16.02;;
71566;SDS011;59403;47.456;19.120;2023-10-19T08:36:06;27.50;;;16.80;;
71566;SDS011;59403;47.456;19.120;2023-10-19T08:38:42;29.63;;;16.67;;
71566;SDS011;59403;47.456;19.120;2023-10-19T08:41:09;24.67;;;15.73;;
71566;SDS011;59403;47.456;19.120;2023-10-19T08:43:37;26.80;;;16.25;;
71566;SDS011;59403;47.456;19.120;2023-10-19T08:46:05;25.70;;;16.20;;
71566;SDS011;59403;47.456;19.120;2023-10-19T08:48:33;28.02;;;16.15;;
71566;SDS011;59403;47.456;19.120;2023-10-19T08:51:02;29.20;;;17.10;;
71566;SDS011;59403;47.456;19.120;2023-10-19T08:53:35;27.62;;;16.20;;
71566;SDS011;59403;47.456;19.120;2023-10-19T08:56:06;31.42;;;16.27;;
71566;SDS011;59403;47.456;19.120;2023-10-19T08:58:33;29.10;;;16.30;;
71566;SDS011;59403;47.456;19.120;2023-10-19T09:01:02;27.40;;;15.70;;
71566;SDS011;59403;47.456;19.120;2023-10-19T09:03:35;27.10;;;16.70;;
71566;SDS011;59403;47.456;19.120;2023-10-19T09:06:02;29.95;;;16.33;;
71566;SDS011;59403;47.456;19.120;2023-10-19T09:08:30;25.95;;;15.45;;
71566;SDS011;59403;47.456;19.120;2023-10-19T09:11:05;28.12;;;16.52;;
71566;SDS011;59403;47.456;19.120;2023-10-19T09:13:42;26.55;;;16.00;;
71566;SDS011;59403;47.456;19.120;2023-10-19T09:16:13;27.97;;;15.93;;
71566;SDS011;59403;47.456;19.120;2023-10-19T09:18:41;27.37;;;17.15;;
71566;SDS011;59403;47.456;19.120;2023-10-19T09:21:08;27.77;;;16.45;;
71566;SDS011;59403;47.456;19.120;2023-10-19T09:23:38;27.65;;;16.58;;
71566;SDS011;59403;47.456;19.120;2023-10-19T09:26:05;26.20;;;16.17;;
71566;SDS011;59403;47.456;19.120;2023-10-19T09:28:36;33.53;;;17.13;;
71566;SDS011;59403;47.456;19.120;2023-10-19T09:31:04;26.92;;;16.67;;
71566;SDS011;59403;47.456;19.120;2023-10-19T09:33:36;25.95;;;16.87;;
71566;SDS011;59403;47.456;19.120;2023-10-19T09:36:05;27.90;;;16.02;;
71566;SDS011;59403;47.456;19.120;2023-10-19T09:38:38;27.70;;;16.42;;
71566;SDS011;59403;47.456;19.120;2023-10-19T09:41:07;26.63;;;15.80;;
71566;SDS011;59403;47.456;19.120;2023-10-19T09:43:39;25.15;;;15.00;;
71566;SDS011;59403;47.456;19.120;2023-10-19T09:46:11;25.70;;;15.82;;
71566;SDS011;59403;47.456;19.120;2023-10-19T09:48:40;27.80;;;16.62;;
71566;SDS011;59403;47.456;19.120;2023-10-19T09:51:09;27.52;;;15.07;;
71566;SDS011;59403;47.456;19.120;2023-10-19T09:53:37;26.60;;;16.67;;
71566;SDS011;59403;47.456;19.120;2023-10-19T09:56:06;29.48;;;16.55;;
71566;SDS011;59403;47.456;19.120;2023-10-19T09:58:35;27.87;;;16.73;;
71566;SDS011;59403;47.456;19.120;2023-10-19T10:01:08;27.95;;;16.75;;
71566;SDS011;59403;47.456;19.120;2023-10-19T10:03:46;31.62;;;17.87;;
71566;SDS011;59403;47.456;19.120;2023-10-19T10:06:16;27.50;;;16.77;;
71566;SDS011;59403;47.456;19.120;2023-10-19T10:08:52;31.10;;;17.95;;
71566;SDS011;59403;47.456;19.120;2023-10-19T10:11:20;26.98;;;17.00;;
71566;SDS011;59403;47.456;19.120;2023-10-19T10:13:51;29.45;;;17.70;;
71566;SDS011;59403;47.456;19.120;2023-10-19T10:16:19;29.25;;;17.35;;
71566;SDS011;59403;47.456;19.120;2023-10-19T10:18:50;28.40;;;17.80;;
71566;SDS011;59403;47.456;19.120;2023-10-19T10:21:25;27.98;;;17.40;;
71566;SDS011;59403;47.456;19.120;2023-10-19T10:23:53;29.02;;;18.27;;
71566;SDS011;59403;47.456;19.120;2023-10-19T10:26:22;34.35;;;18.10;;
71566;SDS011;59403;47.456;19.120;2023-10-19T10:29:09;30.12;;;17.37;;
71566;SDS011;59403;47.456;19.120;2023-10-19T10:31:45;25.60;;;16.62;;
71566;SDS011;59403;47.456;19.120;2023-10-19T10:37:11;26.30;;;17.35;;
71566;SDS011;59403;47.456;19.120;2023-10-19T10:39:39;27.15;;;17.37;;
71566;SDS011;59403;47.456;19.120;2023-10-19T10:42:07;33.47;;;17.27;;
71566;SDS011;59403;47.456;19.120;2023-10-19T10:44:35;25.30;;;17.37;;
71566;SDS011;59403;47.456;19.120;2023-10-19T10:47:04;31.37;;;17.48;;
71566;SDS011;59403;47.456;19.120;2023-10-19T10:49:35;27.45;;;17.30;;
71566;SDS011;59403;47.456;19.120;2023-10-19T10:52:22;28.17;;;16.73;;
71566;SDS011;59403;47.456;19.120;2023-10-19T10:54:50;29.50;;;17.33;;
71566;SDS011;59403;47.456;19.120;2023-10-19T10:57:18;25.67;;;16.12;;
71566;SDS011;59403;47.456;19.120;2023-10-19T10:59:45;27.55;;;17.85;;
71566;SDS011;59403;47.456;19.120;2023-10-19T11:02:16;25.25;;;16.92;;
71566;SDS011;59403;47.456;19.120;2023-10-19T11:04:48;26.40;;;16.33;;
71566;SDS011;59403;47.456;19.120;2023-10-19T11:07:25;26.90;;;17.08;;
71566;SDS011;59403;47.456;19.120;2023-10-19T11:09:52;25.37;;;17.03;;
71566;SDS011;59403;47.456;19.120;2023-10-19T11:12:20;28.45;;;19.05;;
71566;SDS011;59403;47.456;19.120;2023-10-19T11:14:53;26.33;;;16.92;;
71566;SDS011;59403;47.456;19.120;2023-10-19T11:17:20;24.20;;;16.90;;
71566;SDS011;59403;47.456;19.120;2023-10-19T11:19:54;26.20;;;17.62;;
71566;SDS011;59403;47.456;19.120;2023-10-19T11:22:23;26.48;;;17.80;;
71566;SDS011;59403;47.456;19.120;2023-10-19T11:24:55;28.83;;;18.23;;
71566;SDS011;59403;47.456;19.120;2023-10-19T11:27:45;24.75;;;16.90;;
71566;SDS011;59403;47.456;19.120;2023-10-19T11:30:12;23.50;;;16.48;;
71566;SDS011;59403;47.456;19.120;2023-10-19T11:32:40;26.20;;;17.42;;
71566;SDS011;59403;47.456;19.120;2023-10-19T11:35:09;26.05;;;18.08;;
71566;SDS011;59403;47.456;19.120;2023-10-19T11:37:46;25.90;;;17.90;;
71566;SDS011;59403;47.456;19.120;2023-10-19T11:40:14;27.48;;;18.58;;
71566;SDS011;59403;47.456;19.120;2023-10-19T11:42:41;28.73;;;17.20;;
71566;SDS011;59403;47.456;19.120;2023-10-19T11:45:09;26.92;;;17.00;;
71566;SDS011;59403;47.456;19.120;2023-10-19T11:47:42;24.17;;;17.55;;
71566;SDS011;59403;47.456;19.120;2023-10-19T11:50:21;26.45;;;18.23;;
71566;SDS011;59403;47.456;19.120;2023-10-19T11:52:49;25.00;;;17.23;;
71566;SDS011;59403;47.456;19.120;2023-10-19T11:55:17;25.00;;;17.52;;
71566;SDS011;59403;47.456;19.120;2023-10-19T11:57:46;35.60;;;19.00;;
71566;SDS011;59403;47.456;19.120;2023-10-19T12:00:13;28.17;;;19.20;;
71566;SDS011;59403;47.456;19.120;2023-10-19T12:02:46;29.65;;;18.95;;
71566;SDS011;59403;47.456;19.120;2023-10-19T12:05:13;28.98;;;19.80;;
71566;SDS011;59403;47.456;19.120;2023-10-19T12:07:42;27.10;;;19.08;;
71566;SDS011;59403;47.456;19.120;2023-10-19T12:10:10;30.45;;;18.77;;
71566;SDS011;59403;47.456;19.120;2023-10-19T12:12:38;33.35;;;18.37;;
71566;SDS011;59403;47.456;19.120;2023-10-19T12:15:06;29.37;;;19.05;;
71566;SDS011;59403;47.456;19.120;2023-10-19T12:17:37;33.92;;;19.02;;
71566;SDS011;59403;47.456;19.120;2023-10-19T12:20:04;30.02;;;19.70;;
71566;SDS011;59403;47.456;19.120;2023-10-19T12:22:32;26.08;;;18.20;;
71566;SDS011;59403;47.456;19.120;2023-10-19T12:25:05;31.08;;;19.52;;
71566;SDS011;59403;47.456;19.120;2023-10-19T12:27:32;31.58;;;20.20;;
71566;SDS011;59403;47.456;19.120;2023-10-19T12:29:59;29.25;;;20.02;;
71566;SDS011;59403;47.456;19.120;2023-10-19T12:32:27;30.80;;;20.58;;
71566;SDS011;59403;47.456;19.120;2023-10-19T12:34:53;30.50;;;20.08;;
71566;SDS011;59403;47.456;19.120;2023-10-19T12:37:22;28.12;;;19.45;;
71566;SDS011;59403;47.456;19.120;2023-10-19T12:39:49;43.97;;;19.70;;
71566;SDS011;59403;47.456;19.120;2023-10-19T12:42:18;32.05;;;20.20;;
71566;SDS011;59403;47.456;19.120;2023-10-19T12:44:48;29.65;;;20.20;;
71566;SDS011;59403;47.456;19.120;2023-10-19T12:47:16;29.08;;;20.25;;
71566;SDS011;59403;47.456;19.120;2023-10-19T12:49:43;26.92;;;19.12;;
71566;SDS011;59403;47.456;19.120;2023-10-19T12:52:11;31.45;;;19.05;;
71566;SDS011;59403;47.456;19.120;2023-10-19T12:54:39;29.55;;;19.65;;
71566;SDS011;59403;47.456;19.120;2023-10-19T12:57:09;27.98;;;18.80;;
71566;SDS011;59403;47.456;19.120;2023-10-19T12:59:37;31.00;;;20.15;;
71566;SDS011;59403;47.456;19.120;2023-10-19T13:02:04;29.95;;;19.12;;
71566;SDS011;59403;47.456;19.120;2023-10-19T13:04:33;31.58;;;19.75;;
71566;SDS011;59403;47.456;19.120;2023-10-19T13:07:01;29.70;;;19.50;;
71566;SDS011;59403;47.456;19.120;2023-10-19T13:09:29;30.98;;;19.70;;
71566;SDS011;59403;47.456;19.120;2023-10-19T13:11:57;32.88;;;20.12;;
71566;SDS011;59403;47.456;19.120;2023-10-19T13:14:25;32.10;;;20.50;;
71566;SDS011;59403;47.456;19.120;2023-10-19T13:16:53;36.10;;;20.75;;
71566;SDS011;59403;47.456;19.120;2023-10-19T13:19:20;33.83;;;20.48;;
71566;SDS011;59403;47.456;19.120;2023-10-19T13:21:50;32.05;;;20.12;;
71566;SDS011;59403;47.456;19.120;2023-10-19T13:24:17;30.25;;;20.62;;
71566;SDS011;59403;47.456;19.120;2023-10-19T13:26:45;34.95;;;20.02;;
71566;SDS011;59403;47.456;19.120;2023-10-19T13:29:12;35.85;;;20.80;;
71566;SDS011;59403;47.456;19.120;2023-10-19T13:31:40;33.78;;;20.58;;
71566;SDS011;59403;47.456;19.120;2023-10-19T13:34:11;33.33;;;19.80;;
71566;SDS011;59403;47.456;19.120;2023-10-19T13:36:38;35.35;;;22.17;;
71566;SDS011;59403;47.456;19.120;2023-10-19T13:39:05;32.00;;;20.85;;
71566;SDS011;59403;47.456;19.120;2023-10-19T13:41:38;34.60;;;20.85;;
71566;SDS011;59403;47.456;19.120;2023-10-19T13:44:05;36.13;;;20.75;;
71566;SDS011;59403;47.456;19.120;2023-10-19T13:46:32;35.28;;;21.30;;
71566;SDS011;59403;47.456;19.120;2023-10-19T13:48:59;33.13;;;20.83;;
71566;SDS011;59403;47.456;19.120;2023-10-19T13:51:30;33.17;;;21.63;;
71566;SDS011;59403;47.456;19.120;2023-10-19T13:53:57;34.20;;;20.55;;
71566;SDS011;59403;47.456;19.120;2023-10-19T13:56:24;36.08;;;21.20;;
71566;SDS011;59403;47.456;19.120;2023-10-19T13:58:51;34.13;;;20.88;;
71566;SDS011;59403;47.456;19.120;2023-10-19T14:01:18;33.75;;;21.52;;
71566;SDS011;59403;47.456;19.120;2023-10-19T14:03:50;39.90;;;21.52;;
71566;SDS011;59403;47.456;19.120;2023-10-19T14:06:20;33.38;;;20.12;;
71566;SDS011;59403;47.456;19.120;2023-10-19T14:08:48;35.95;;;22.33;;
71566;SDS011;59403;47.456;19.120;2023-10-19T14:11:15;40.28;;;22.17;;
71566;SDS011;59403;47.456;19.120;2023-10-19T14:13:42;34.60;;;21.27;;
71566;SDS011;59403;47.456;19.120;2023-10-19T14:16:10;34.78;;;21.27;;
71566;SDS011;59403;47.456;19.120;2023-10-19T14:18:37;33.15;;;21.67;;
71566;SDS011;59403;47.456;19.120;2023-10-19T14:21:10;35.10;;;21.80;;
71566;SDS011;59403;47.456;19.120;2023-10-19T14:23:39;35.75;;;22.30;;
71566;SDS011;59403;47.456;19.120;2023-10-19T14:26:09;36.53;;;21.02;;